Time;durP1;ratioP1;P1;durP2;ratioP2;P2;SDS_P1;SDS_P2;PMS_P1;PMS_P2;Temp;Humidity;BMP_temperature;BMP_pressure;BME280_temperature;BME280_humidity;BME280_pressure;Samples;Min_cycle;Max_cycle;Signal;HPM_P1;HPM_P2
2022/04/17 00:01:37;;;;;;;29.23;11.18;;;;;;;10.26;59.43;101337.81;4991581;28;20050;-39
2022/04/17 00:04:04;;;;;;;25.95;11.48;;;;;;;10.18;59.10;101331.63;4990678;28;20050;-44
2022/04/17 00:06:30;;;;;;;27.73;10.98;;;;;;;10.07;60.25;101333.13;4989829;28;20047;-45
2022/04/17 00:08:57;;;;;;;28.35;11.13;;;;;;;9.99;60.22;101331.25;4990114;28;20399;-41
2022/04/17 00:11:24;;;;;;;28.30;11.77;;;;;;;9.99;59.52;101328.66;4988862;28;20054;-47
2022/04/17 00:13:51;;;;;;;26.95;10.60;;;;;;;9.93;59.63;101320.75;4987260;28;20097;-42
2022/04/17 00:16:18;;;;;;;31.55;12.98;;;;;;;9.83;60.53;101313.66;4989547;28;20046;-44
2022/04/17 00:18:45;;;;;;;31.98;12.75;;;;;;;9.78;61.00;101318.75;4988954;28;20065;-40
2022/04/17 00:21:13;;;;;;;29.00;10.93;;;;;;;9.79;60.60;101319.63;4988313;28;20042;-42
2022/04/17 00:23:58;;;;;;;30.23;12.80;;;;;;;9.76;60.84;101323.00;4989188;28;20053;-44
2022/04/17 00:26:26;;;;;;;29.58;12.02;;;;;;;9.73;60.62;101318.63;4987558;28;20058;-41
2022/04/17 00:28:54;;;;;;;30.75;12.07;;;;;;;9.68;60.80;101315.09;4985840;28;20446;-45
2022/04/17 00:31:23;;;;;;;30.60;12.40;;;;;;;9.63;61.34;101311.53;4984192;28;20058;-45
2022/04/17 00:34:08;;;;;;;28.85;12.23;;;;;;;9.61;61.15;101308.91;4988270;28;20114;-40
2022/04/17 00:36:37;;;;;;;28.02;12.65;;;;;;;9.58;60.54;101302.78;4986929;28;20497;-41
2022/04/17 00:39:05;;;;;;;30.48;12.68;;;;;;;9.52;61.94;101301.81;4985573;28;20089;-41
2022/04/17 00:41:32;;;;;;;29.50;13.40;;;;;;;9.55;61.96;101302.75;4990108;28;20058;-45
2022/04/17 00:43:58;;;;;;;32.40;12.55;;;;;;;9.54;61.31;101296.69;4985509;28;20093;-41
2022/04/17 00:46:25;;;;;;;31.25;12.13;;;;;;;9.52;60.70;101299.22;4986406;28;20088;-40
2022/04/17 00:48:52;;;;;;;33.63;12.00;;;;;;;9.47;61.63;101299.97;4987638;28;20050;-40
2022/04/17 00:51:18;;;;;;;32.38;12.73;;;;;;;9.36;61.41;101292.84;4986465;28;20043;-42
2022/04/17 00:53:45;;;;;;;31.25;13.10;;;;;;;9.30;61.50;101297.00;4987635;28;20061;-44
2022/04/17 00:56:13;;;;;;;32.60;12.43;;;;;;;9.25;62.10;101305.53;4986010;28;20057;-43
2022/04/17 00:58:39;;;;;;;32.65;13.07;;;;;;;9.15;61.82;101293.22;4988416;28;20477;-45
2022/04/17 01:01:06;;;;;;;28.35;11.93;;;;;;;9.13;62.15;101294.91;4984491;28;20105;-41
2022/04/17 01:03:33;;;;;;;30.40;12.52;;;;;;;9.11;61.73;101288.81;4985239;28;20427;-44
2022/04/17 01:06:01;;;;;;;29.63;12.48;;;;;;;9.03;62.96;101288.66;4988440;28;20471;-40
2022/04/17 01:08:28;;;;;;;32.53;12.70;;;;;;;8.99;62.79;101287.69;4987857;28;20053;-41
2022/04/17 01:10:54;;;;;;;31.70;12.43;;;;;;;8.96;62.73;101279.91;4989690;28;20457;-44
2022/04/17 01:13:22;;;;;;;31.77;11.80;;;;;;;8.88;63.92;101283.97;4986893;28;20042;-42
2022/04/17 01:15:49;;;;;;;29.67;12.85;;;;;;;8.82;64.12;101273.50;4987004;28;20054;-40
2022/04/17 01:18:16;;;;;;;34.15;13.65;;;;;;;8.80;63.87;101275.16;4989665;28;20050;-42
2022/04/17 01:21:01;;;;;;;32.35;11.95;;;;;;;8.72;63.93;101278.44;4989954;28;20394;-40
2022/04/17 01:29:02;;;;;;;34.45;12.75;;;;;;;8.61;63.70;101259.22;4985711;28;20502;-40
2022/04/17 01:31:29;;;;;;;30.63;12.18;;;;;;;8.60;64.83;101258.34;4986695;28;20050;-41
2022/04/17 01:33:56;;;;;;;36.50;13.48;;;;;;;8.61;64.22;101256.63;4989701;28;20113;-40
2022/04/17 01:36:23;;;;;;;37.15;13.30;;;;;;;8.62;63.99;101255.81;4985063;28;20050;-42
2022/04/17 01:38:49;;;;;;;37.05;13.48;;;;;;;8.62;64.13;101250.66;4988405;28;20046;-42
2022/04/17 01:41:18;;;;;;;35.55;14.20;;;;;;;8.60;63.55;101241.97;4985042;28;20042;-43
2022/04/17 01:43:45;;;;;;;31.52;11.60;;;;;;;8.56;63.81;101245.31;4987730;28;20402;-44
2022/04/17 01:46:11;;;;;;;37.40;14.75;;;;;;;8.54;64.01;101236.69;4986479;28;20058;-39
2022/04/17 01:48:38;;;;;;;37.53;13.68;;;;;;;8.48;63.19;101237.38;4986276;28;20050;-41
2022/04/17 01:51:04;;;;;;;42.25;15.00;;;;;;;8.45;64.02;101238.13;4984077;28;20113;-39
2022/04/17 01:53:31;;;;;;;31.23;12.32;;;;;;;8.38;64.29;101231.09;4988168;28;20104;-43
2022/04/17 01:56:00;;;;;;;35.65;14.75;;;;;;;8.39;64.90;101232.84;4984089;28;20100;-42
2022/04/17 01:58:26;;;;;;;39.45;14.95;;;;;;;8.38;64.69;101225.94;4982527;28;20050;-43
2022/04/17 02:00:53;;;;;;;37.53;14.75;;;;;;;8.39;63.97;101227.69;4985048;28;20054;-41
2022/04/17 02:03:20;;;;;;;42.42;15.32;;;;;;;8.38;65.04;101220.78;4982924;28;20075;-46
2022/04/17 02:05:46;;;;;;;35.63;14.93;;;;;;;8.40;64.66;101224.25;4985772;28;20058;-41
2022/04/17 02:08:15;;;;;;;39.17;14.77;;;;;;;8.43;65.25;101219.16;4983815;28;20053;-43
2022/04/17 02:10:42;;;;;;;42.83;14.77;;;;;;;8.45;64.82;101221.78;4981703;28;20057;-42
2022/04/17 02:13:08;;;;;;;39.67;14.38;;;;;;;8.46;64.15;101219.25;4984954;28;20419;-42
2022/04/17 02:15:35;;;;;;;42.67;15.57;;;;;;;8.46;65.27;101218.38;4985214;28;20193;-44
2022/04/17 02:18:02;;;;;;;41.75;15.63;;;;;;;8.52;63.71;101217.66;4981313;28;20038;-43
2022/04/17 02:20:29;;;;;;;37.10;14.68;;;;;;;8.55;63.89;101217.75;4981759;28;20113;-41
2022/04/17 02:22:55;;;;;;;38.42;14.50;;;;;;;8.57;64.12;101211.78;4985848;28;20108;-40
2022/04/17 02:25:22;;;;;;;40.30;14.73;;;;;;;8.56;63.59;101214.34;4984574;28;20061;-40
2022/04/17 02:27:48;;;;;;;41.45;15.52;;;;;;;8.56;63.74;101212.63;4983089;28;20043;-42
2022/04/17 02:30:15;;;;;;;45.20;17.25;;;;;;;8.58;64.04;101210.09;4983995;28;20116;-43
2022/04/17 02:32:41;;;;;;;41.47;15.93;;;;;;;8.58;64.43;101205.78;4983193;28;20541;-42
2022/04/17 02:35:10;;;;;;;41.15;16.05;;;;;;;8.58;64.52;101210.09;4989457;28;20051;-40
2022/04/17 02:37:37;;;;;;;38.13;15.00;;;;;;;8.57;63.76;101200.56;4983473;28;20624;-39
2022/04/17 02:40:04;;;;;;;44.75;16.92;;;;;;;8.57;63.63;101196.28;4982845;28;20055;-46
2022/04/17 02:42:31;;;;;;;43.38;15.63;;;;;;;8.57;64.29;101200.56;4984382;28;21298;-42
2022/04/17 02:44:58;;;;;;;40.60;15.13;;;;;;;8.51;64.74;101190.09;4985432;28;20058;-42
2022/04/17 02:50:13;;;;;;;47.60;15.88;;;;;;;8.45;65.74;101190.81;4978785;28;20042;-42
2022/04/17 02:52:40;;;;;;;43.10;14.45;;;;;;;8.43;65.14;101188.19;4985229;28;20117;-45
2022/04/17 02:55:08;;;;;;;42.00;15.32;;;;;;;8.40;65.02;101182.94;4982780;28;20054;-40
2022/04/17 02:57:34;;;;;;;37.13;15.32;;;;;;;8.36;65.93;101178.53;4985569;28;20112;-41
2022/04/17 03:00:06;;;;;;;44.60;15.35;;;;;;;8.38;65.36;101183.75;4984141;28;20054;-45
2022/04/17 03:05:37;;;;;;;41.97;15.20;;;;;;;8.41;65.17;101178.66;4969041;28;20050;-42
2022/04/17 03:10:43;;;;;;;39.70;16.92;;;;;;;8.42;64.86;101176.13;5051222;27;20405;-42
2022/04/17 03:13:10;;;;;;;48.58;19.55;;;;;;;8.41;64.40;101169.19;5020805;28;20045;-45
2022/04/17 03:15:38;;;;;;;45.38;17.60;;;;;;;8.40;65.41;101159.72;5021287;28;20141;-44
2022/04/17 03:18:06;;;;;;;44.42;17.63;;;;;;;8.35;64.69;101161.31;5023901;28;20046;-44
2022/04/17 03:20:32;;;;;;;44.67;19.23;;;;;;;8.34;65.28;101156.97;5020720;28;20062;-45
2022/04/17 03:22:59;;;;;;;44.22;17.83;;;;;;;8.29;64.77;101154.28;5022540;28;20595;-43
2022/04/17 03:25:26;;;;;;;44.53;18.30;;;;;;;8.27;64.31;101149.94;5021979;28;20058;-46
2022/04/17 03:27:53;;;;;;;38.78;17.10;;;;;;;8.23;65.36;101149.84;5018214;28;20528;-41
2022/04/17 03:30:19;;;;;;;46.20;19.23;;;;;;;8.22;64.77;101145.53;5021295;28;20049;-45
2022/04/17 03:32:48;;;;;;;45.45;18.35;;;;;;;8.20;65.93;101139.44;5020860;28;20060;-45
2022/04/17 03:35:15;;;;;;;44.83;17.65;;;;;;;8.16;64.99;101137.63;5020373;28;20045;-44
2022/04/17 03:37:42;;;;;;;43.25;17.58;;;;;;;8.14;64.88;101141.00;5018597;28;20058;-46
2022/04/17 03:40:12;;;;;;;41.97;15.57;;;;;;;8.15;65.29;101135.00;5019255;28;20449;-44
2022/04/17 03:42:39;;;;;;;47.08;21.45;;;;;;;8.10;65.99;101132.28;5022653;28;20049;-41
2022/04/17 03:45:11;;;;;;;44.42;18.40;;;;;;;8.08;66.23;101128.81;5019712;28;20100;-42
2022/04/17 03:47:38;;;;;;;46.63;18.95;;;;;;;8.03;65.30;101130.41;5017746;28;20046;-42
2022/04/17 03:50:05;;;;;;;50.03;18.55;;;;;;;8.01;65.29;101124.34;5019174;28;20045;-45
2022/04/17 03:55:16;;;;;;;46.53;16.00;;;;;;;7.94;65.35;101125.91;5051567;27;20416;-38
2022/04/17 03:57:43;;;;;;;47.05;15.52;;;;;;;7.94;65.84;101123.31;5014375;28;20077;-44
2022/04/17 04:00:12;;;;;;;45.03;16.33;;;;;;;7.93;64.91;101125.00;5010781;28;20053;-41
2022/04/17 04:02:40;;;;;;;49.63;14.93;;;;;;;7.92;65.60;101119.81;5008622;28;20054;-41
2022/04/17 04:05:08;;;;;;;47.17;16.00;;;;;;;7.92;65.76;101107.81;5011305;28;20116;-43
2022/04/17 04:07:36;;;;;;;42.60;15.60;;;;;;;7.88;65.98;101105.97;5006741;28;20050;-43
2022/04/17 04:10:05;;;;;;;40.90;14.90;;;;;;;7.83;64.99;101112.69;5015495;28;20053;-40
2022/04/17 04:12:33;;;;;;;45.17;15.63;;;;;;;7.80;65.43;101110.06;5018949;28;20054;-42
2022/04/17 04:15:00;;;;;;;45.25;15.30;;;;;;;7.76;65.96;101105.63;5012551;28;20129;-41
2022/04/17 04:17:27;;;;;;;39.92;15.38;;;;;;;7.73;65.57;101111.59;5018481;28;20046;-48
2022/04/17 04:19:53;;;;;;;43.40;14.98;;;;;;;7.69;64.86;101107.19;5016420;28;20053;-42
2022/04/17 04:22:21;;;;;;;40.72;15.95;;;;;;;7.66;65.76;101100.25;5008733;28;20509;-45
2022/04/17 04:24:48;;;;;;;44.45;15.43;;;;;;;7.63;65.24;101101.88;5009537;28;20625;-45
2022/04/17 04:30:02;;;;;;;41.00;15.18;;;;;;;7.56;64.40;101098.25;5008428;28;20107;-41
2022/04/17 04:32:28;;;;;;;47.30;15.10;;;;;;;7.54;64.29;101099.94;5008934;28;20046;-44
2022/04/17 04:35:02;;;;;;;42.83;15.57;;;;;;;7.52;65.57;101096.44;5012553;28;20115;-39
2022/04/17 04:37:28;;;;;;;46.80;16.27;;;;;;;7.48;64.97;101092.03;5008714;28;20042;-41
2022/04/17 04:39:56;;;;;;;44.45;15.48;;;;;;;7.46;65.63;101087.72;5006290;28;20096;-43
2022/04/17 04:42:23;;;;;;;53.13;16.98;;;;;;;7.45;65.61;101085.97;5010744;28;20046;-43
2022/04/17 04:46:06;;;;;;;48.85;16.65;;;;;;;7.45;65.61;101088.56;5006063;28;20117;-39
2022/04/17 04:47:36;;;;;;;44.90;15.93;;;;;;;7.45;66.18;101080.81;5008140;28;20046;-38
2022/04/17 04:50:03;;;;;;;46.70;16.02;;;;;;;7.45;65.01;101082.50;5007497;28;20444;-43
2022/04/17 04:52:35;;;;;;;49.75;16.45;;;;;;;7.43;65.21;101076.47;5009916;28;20054;-43
2022/04/17 04:55:02;;;;;;;51.63;16.67;;;;;;;7.41;66.87;101068.69;5006536;28;20069;-40
2022/04/17 04:57:29;;;;;;;50.00;16.45;;;;;;;7.41;65.89;101073.84;5009013;28;20058;-42
2022/04/17 04:59:56;;;;;;;47.75;16.83;;;;;;;7.41;65.78;101068.69;5010830;28;20081;-44
2022/04/17 05:02:23;;;;;;;50.40;16.42;;;;;;;7.42;65.66;101072.09;5007638;28;20046;-42
2022/04/17 05:04:49;;;;;;;48.33;17.27;;;;;;;7.41;66.27;101073.84;5007067;28;20054;-45
2022/04/17 05:07:16;;;;;;;45.95;17.15;;;;;;;7.39;66.76;101074.59;4997985;28;20073;-44
2022/04/17 05:09:42;;;;;;;45.15;15.70;;;;;;;7.39;66.31;101072.03;4992743;28;20129;-39
2022/04/17 05:12:10;;;;;;;49.85;17.40;;;;;;;7.38;65.55;101073.75;5002746;28;20055;-43
2022/04/17 05:14:41;;;;;;;47.45;16.77;;;;;;;7.37;66.32;101066.84;4994692;28;20097;-41
2022/04/17 05:17:08;;;;;;;52.53;17.45;;;;;;;7.36;66.60;101062.50;4994310;28;20058;-41
2022/04/17 05:19:35;;;;;;;50.30;17.55;;;;;;;7.34;65.62;101069.34;4999793;28;20116;-41
2022/04/17 05:22:02;;;;;;;50.45;16.20;;;;;;;7.34;65.61;101061.59;5000575;28;20042;-42
2022/04/17 05:24:29;;;;;;;49.85;17.35;;;;;;;7.33;66.27;101065.03;4992704;28;20038;-40
2022/04/17 05:26:56;;;;;;;48.63;16.17;;;;;;;7.32;65.55;101063.25;4990068;28;20050;-40
2022/04/17 05:29:23;;;;;;;52.60;16.70;;;;;;;7.33;66.21;101070.19;4991303;28;20058;-42
2022/04/17 05:31:49;;;;;;;48.05;16.45;;;;;;;7.36;66.29;101066.81;4994530;28;20112;-40
2022/04/17 05:34:16;;;;;;;49.67;16.10;;;;;;;7.37;67.26;101066.84;4993223;28;20049;-44
2022/04/17 05:36:43;;;;;;;50.42;16.95;;;;;;;7.40;66.75;101061.75;4989199;28;20114;-41
2022/04/17 05:39:10;;;;;;;45.05;15.90;;;;;;;7.41;67.08;101053.22;5006761;28;20450;-41
2022/04/17 05:41:38;;;;;;;50.28;16.98;;;;;;;7.43;67.44;101051.53;4990504;28;20141;-42
2022/04/17 05:44:07;;;;;;;48.75;16.85;;;;;;;7.45;66.36;101049.88;4988058;28;20495;-39
2022/04/17 05:46:36;;;;;;;47.95;17.25;;;;;;;7.44;65.91;101050.69;4996315;28;20100;-43
2022/04/17 05:49:04;;;;;;;48.78;17.55;;;;;;;7.48;66.36;101053.34;4993401;28;20041;-45
2022/04/17 05:51:33;;;;;;;53.65;18.33;;;;;;;7.52;65.75;101044.88;4987870;28;20128;-44
2022/04/17 05:54:05;;;;;;;51.70;16.67;;;;;;;7.56;66.40;101055.31;4985990;28;20089;-42
2022/04/17 05:56:32;;;;;;;48.22;15.88;;;;;;;7.60;65.61;101053.66;5001397;28;20128;-43
2022/04/17 05:59:00;;;;;;;55.42;17.13;;;;;;;7.65;66.13;101052.09;4997744;28;20054;-42
2022/04/17 06:01:29;;;;;;;44.80;16.40;;;;;;;7.70;65.74;101047.91;4992700;28;20042;-42
2022/04/17 06:03:56;;;;;;;51.25;17.67;;;;;;;7.73;66.05;101054.84;4987059;28;20047;-42
2022/04/17 06:06:22;;;;;;;52.47;17.77;;;;;;;7.77;66.88;101046.34;4993869;28;20426;-41
2022/04/17 06:08:49;;;;;;;50.95;18.45;;;;;;;7.82;65.34;101046.47;4989646;28;20046;-40
2022/04/17 06:11:15;;;;;;;55.35;19.35;;;;;;;7.89;65.61;101056.13;4992627;28;20047;-40
2022/04/17 06:13:42;;;;;;;49.88;16.60;;;;;;;7.97;66.24;101048.56;4992606;28;20675;-42
2022/04/17 06:16:09;;;;;;;47.83;15.98;;;;;;;8.05;65.33;101046.19;4992220;28;20101;-39
2022/04/17 06:18:35;;;;;;;52.92;17.00;;;;;;;8.11;66.66;101046.34;5000102;28;20054;-42
2022/04/17 06:21:02;;;;;;;50.08;17.95;;;;;;;8.17;65.04;101041.28;4990520;28;20081;-45
2022/04/17 06:23:29;;;;;;;47.15;15.57;;;;;;;8.20;66.37;101041.38;4993904;28;20100;-44
2022/04/17 06:25:55;;;;;;;50.17;17.90;;;;;;;8.27;65.35;101031.19;4991454;28;20065;-43
2022/04/17 06:28:22;;;;;;;50.42;18.00;;;;;;;8.33;65.85;101031.31;4994838;28;20471;-45
2022/04/17 06:30:49;;;;;;;51.00;16.45;;;;;;;8.40;65.23;101028.03;4994245;28;20049;-41
2022/04/17 06:33:15;;;;;;;53.33;17.98;;;;;;;8.48;65.64;101033.38;5000296;28;20532;-50
2022/04/17 06:35:42;;;;;;;47.63;16.95;;;;;;;8.56;66.10;101024.13;4997165;28;20046;-42
2022/04/17 06:38:10;;;;;;;51.55;17.45;;;;;;;8.64;65.52;101026.84;4993533;28;20058;-44
2022/04/17 06:40:38;;;;;;;50.70;17.77;;;;;;;8.75;65.23;101021.94;4987371;28;20056;-39
2022/04/17 06:43:08;;;;;;;49.08;18.73;;;;;;;8.87;65.81;101024.75;4990181;28;20046;-39
2022/04/17 06:45:36;;;;;;;53.90;17.80;;;;;;;9.00;65.52;101018.13;4977420;28;20042;-44
2022/04/17 06:48:21;;;;;;;51.15;18.55;;;;;;;9.21;66.13;101013.31;4999300;28;20043;-42
2022/04/17 06:50:50;;;;;;;53.08;18.35;;;;;;;9.59;64.74;101017.44;4992704;28;20052;-47
2022/04/17 06:53:17;;;;;;;50.42;16.52;;;;;;;9.95;64.29;101018.88;4990698;28;20050;-41
2022/04/17 06:55:43;;;;;;;50.97;16.73;;;;;;;10.29;64.26;101010.72;4988387;28;20058;-45
2022/04/17 06:58:10;;;;;;;46.30;17.05;;;;;;;10.64;63.57;101019.88;4993470;28;20057;-43
2022/04/17 07:00:37;;;;;;;47.42;17.35;;;;;;;10.94;63.21;101013.28;4994114;28;20042;-45
2022/04/17 07:03:04;;;;;;;49.63;18.00;;;;;;;11.28;63.02;101018.84;4988064;28;20097;-44
2022/04/17 07:05:31;;;;;;;48.88;17.13;;;;;;;11.66;62.69;101009.66;4985794;28;20239;-41
2022/04/17 07:08:02;;;;;;;45.83;17.27;;;;;;;12.01;61.47;101005.59;4994015;28;20046;-46
2022/04/17 07:10:29;;;;;;;;;;;;;;;12.15;61.99;100997.94;4979839;28;20116;-42
2022/04/17 07:12:56;;;;;;;43.95;16.83;;;;;;;12.32;60.15;101000.63;4993641;28;19925;-41
2022/04/17 07:15:24;;;;;;;44.78;16.05;;;;;;;12.47;60.36;100999.81;4990897;28;20738;-42
2022/04/17 07:17:53;;;;;;;44.28;16.73;;;;;;;12.76;60.92;101003.41;4984910;28;20060;-43
2022/04/17 07:20:20;;;;;;;42.42;16.02;;;;;;;13.01;60.83;100995.69;4985971;28;20049;-44
2022/04/17 07:22:47;;;;;;;45.63;16.63;;;;;;;13.31;60.40;100998.34;4991822;28;20046;-47
2022/04/17 07:25:19;;;;;;;43.90;16.90;;;;;;;13.64;60.16;100993.19;4993950;28;20057;-47
2022/04/17 07:27:48;;;;;;;41.55;16.10;;;;;;;13.93;58.87;100989.66;4987828;28;20054;-43
2022/04/17 07:30:16;;;;;;;41.60;15.77;;;;;;;14.27;58.76;100990.47;4991182;28;20058;-41
2022/04/17 07:32:46;;;;;;;43.53;17.45;;;;;;;14.60;57.66;100989.47;4987507;28;20057;-43
2022/04/17 07:35:15;;;;;;;43.88;16.67;;;;;;;14.99;57.27;100981.47;4994197;28;20437;-44
2022/04/17 07:40:27;;;;;;;43.03;19.90;;;;;;;15.89;55.21;100977.28;5035006;28;20400;-47
2022/04/17 07:42:56;;;;;;;45.70;21.45;;;;;;;16.06;55.45;100977.16;4983936;28;20108;-44
2022/04/17 07:45:23;;;;;;;40.15;18.50;;;;;;;16.24;53.69;100978.69;4981059;28;20058;-42
2022/04/17 07:47:51;;;;;;;39.78;17.17;;;;;;;16.22;53.26;100977.84;4983778;28;20059;-42
2022/04/17 07:50:23;;;;;;;39.35;17.98;;;;;;;16.26;53.41;100978.69;4982269;28;20055;-40
2022/04/17 07:52:53;;;;;;;39.50;17.45;;;;;;;16.35;52.78;100965.47;4996743;28;20113;-42
2022/04/17 07:55:20;;;;;;;38.63;16.83;;;;;;;16.43;52.05;100968.91;4982423;28;20050;-42
2022/04/17 07:58:24;;;;;;;36.30;16.13;;;;;;;16.45;51.51;100969.72;4982145;28;20352;-45
2022/04/17 08:00:57;;;;;;;38.95;16.75;;;;;;;16.65;52.15;100970.38;4998556;28;20050;-48
2022/04/17 08:03:35;;;;;;;37.20;16.95;;;;;;;16.91;51.04;100967.38;4982692;28;20043;-44
2022/04/17 08:06:05;;;;;;;34.70;13.43;;;;;;;17.09;51.59;100962.78;4985472;28;20414;-43
2022/04/17 08:08:34;;;;;;;;;;;;;;;17.11;50.77;100955.78;4984133;28;20069;-46
2022/04/17 08:11:01;;;;;;;34.25;16.52;;;;;;;17.27;51.30;100966.00;4983353;28;19922;-43
2022/04/17 08:13:27;;;;;;;32.80;15.70;;;;;;;17.29;50.12;100966.84;4980582;28;20051;-52
2022/04/17 08:15:54;;;;;;;34.60;16.27;;;;;;;17.31;49.88;100949.34;4979575;28;20082;-45
2022/04/17 08:18:21;;;;;;;35.50;16.20;;;;;;;17.41;50.80;100956.19;4981812;28;20054;-45
2022/04/17 08:20:47;;;;;;;35.25;16.52;;;;;;;17.54;49.32;100950.72;4981363;28;20046;-46
2022/04/17 08:23:14;;;;;;;34.35;15.63;;;;;;;17.61;49.50;100949.72;5007607;28;20483;-40
2022/04/17 08:25:41;;;;;;;34.67;16.67;;;;;;;17.68;49.19;100947.84;5000891;28;20050;-42
2022/04/17 08:28:08;;;;;;;32.55;13.40;;;;;;;17.79;49.80;100947.66;5002950;28;20520;-44
2022/04/17 08:30:35;;;;;;;32.95;15.38;;;;;;;17.80;49.11;100949.41;5002156;28;20038;-45
2022/04/17 08:33:04;;;;;;;30.58;14.90;;;;;;;17.86;49.06;100938.78;5001507;28;20050;-44
2022/04/17 08:35:31;;;;;;;26.90;13.40;;;;;;;18.14;49.19;100935.69;5004918;28;20141;-43
2022/04/17 08:38:02;;;;;;;26.80;13.05;;;;;;;18.36;48.09;100932.59;5018582;28;20053;-44
2022/04/17 08:40:30;;;;;;;28.75;14.43;;;;;;;18.36;46.65;100935.22;5004680;28;20078;-50
2022/04/17 08:42:57;;;;;;;28.83;13.93;;;;;;;18.36;46.53;100925.59;4999502;28;20050;-44
2022/04/17 08:45:26;;;;;;;30.50;13.52;;;;;;;18.45;46.34;100929.78;5003489;28;20058;-49
2022/04/17 08:47:54;;;;;;;26.65;12.93;;;;;;;18.43;46.92;100920.22;5001814;28;20042;-44
2022/04/17 08:50:22;;;;;;;26.85;14.65;;;;;;;18.44;46.45;100922.78;5009257;28;20141;-48
2022/04/17 08:52:51;;;;;;;26.23;12.80;;;;;;;18.41;46.99;100922.84;4989634;28;20047;-46
2022/04/17 08:55:18;;;;;;;26.13;13.20;;;;;;;18.36;47.04;100924.72;4988227;28;20497;-43
2022/04/17 08:57:45;;;;;;;23.60;12.05;;;;;;;18.28;47.09;100924.03;4989088;28;20054;-43
2022/04/17 09:00:16;;;;;;;28.27;12.15;;;;;;;18.26;46.73;100907.44;4984486;28;20042;-43
2022/04/17 09:02:44;;;;;;;27.23;14.40;;;;;;;18.24;47.48;100910.97;4984313;28;20137;-43
2022/04/17 09:05:12;;;;;;;27.67;12.77;;;;;;;18.25;47.53;100911.84;4986324;28;20084;-45
2022/04/17 09:07:41;;;;;;;27.05;12.88;;;;;;;18.38;47.32;100912.47;4980216;28;20054;-45
2022/04/17 09:10:08;;;;;;;25.50;13.73;;;;;;;18.57;46.69;100909.41;4989865;28;20054;-48
2022/04/17 09:12:35;;;;;;;28.65;14.30;;;;;;;18.62;45.74;100904.94;4989348;28;20050;-44
2022/04/17 09:15:02;;;;;;;28.58;14.15;;;;;;;18.39;46.88;100903.69;4985685;28;20049;-43
2022/04/17 09:17:32;;;;;;;30.52;14.00;;;;;;;18.49;46.92;100905.22;4987468;28;20038;-43
2022/04/17 09:19:58;;;;;;;26.10;13.90;;;;;;;18.56;46.58;100894.56;4987836;28;20108;-47
2022/04/17 09:22:44;;;;;;;29.42;13.20;;;;;;;18.58;47.03;100898.03;4979446;28;20556;-46
2022/04/17 09:25:12;;;;;;;32.15;15.77;;;;;;;18.69;46.82;100890.78;4983874;28;20101;-44
2022/04/17 09:28:01;;;;;;;23.42;11.70;;;;;;;18.98;46.24;100891.84;4980645;28;20062;-47
2022/04/17 09:30:31;;;;;;;28.83;12.88;;;;;;;19.13;46.27;100885.41;4982949;28;20079;-43
2022/04/17 09:33:01;;;;;;;26.10;12.88;;;;;;;19.18;46.17;100882.63;4987707;28;20092;-46
2022/04/17 09:35:28;;;;;;;24.05;11.23;;;;;;;19.21;46.01;100874.69;4984523;28;20458;-44
2022/04/17 09:37:57;;;;;;;25.63;12.25;;;;;;;19.09;47.03;100877.63;4988609;28;20104;-45
2022/04/17 09:40:24;;;;;;;28.95;13.02;;;;;;;19.20;46.72;100877.34;4987157;28;20054;-52
2022/04/17 09:43:11;;;;;;;27.55;12.85;;;;;;;19.13;45.70;100868.78;4986698;28;20109;-48
2022/04/17 09:45:59;;;;;;;25.88;13.20;;;;;;;19.10;46.44;100863.59;4988388;28;20081;-51
2022/04/17 09:48:36;;;;;;;26.02;13.55;;;;;;;18.97;46.80;100865.63;4988886;28;20116;-47
2022/04/17 09:51:24;;;;;;;26.63;13.07;;;;;;;18.74;47.51;100856.53;4990834;28;20042;-48
2022/04/17 09:54:07;;;;;;;27.90;14.00;;;;;;;18.68;47.69;100861.97;4988165;28;20038;-48
2022/04/17 09:56:38;;;;;;;31.67;15.38;;;;;;;18.62;46.91;100852.47;4992561;28;20054;-49
2022/04/17 09:59:23;;;;;;;26.23;13.73;;;;;;;18.71;47.85;100847.00;4990701;28;20659;-44
2022/04/17 10:01:53;;;;;;;27.23;14.45;;;;;;;18.68;47.36;100847.06;4990162;28;20082;-41
2022/04/17 10:04:20;;;;;;;27.30;13.68;;;;;;;18.75;47.88;100843.38;4993079;28;20140;-45
2022/04/17 10:06:49;;;;;;;31.42;14.35;;;;;;;18.87;47.74;100836.13;4986014;28;20053;-42
2022/04/17 10:09:16;;;;;;;30.65;16.25;;;;;;;19.02;48.16;100833.09;5000610;28;20046;-45
2022/04/17 10:11:43;;;;;;;28.15;13.75;;;;;;;19.05;48.51;100834.78;4983977;28;20061;-46
2022/04/17 10:14:10;;;;;;;27.33;11.60;;;;;;;19.09;48.11;100830.38;4992418;28;20458;-45
2022/04/17 10:16:41;;;;;;;28.35;13.82;;;;;;;18.94;47.73;100823.69;4993610;28;20054;-45
2022/04/17 10:19:13;;;;;;;29.90;14.20;;;;;;;18.93;48.20;100814.97;4989923;28;20046;-44
2022/04/17 10:21:41;;;;;;;25.60;12.52;;;;;;;18.91;47.91;100816.75;5004157;28;20049;-42
2022/04/17 10:24:12;;;;;;;21.20;12.15;;;;;;;18.64;46.56;100803.44;4987295;28;20046;-45
2022/04/17 10:26:45;;;;;;;22.92;10.55;;;;;;;18.42;47.30;100806.59;4989115;28;20450;-48
2022/04/17 10:29:22;;;;;;;25.20;12.65;;;;;;;18.25;47.39;100806.97;4988341;28;20096;-42
2022/04/17 10:37:38;;;;;;;23.58;9.93;;;;;;;18.23;47.74;100793.03;5057448;27;21112;-44
2022/04/17 10:40:10;;;;;;;24.98;11.02;;;;;;;18.41;48.61;100791.72;5029929;28;20115;-44
2022/04/17 10:42:54;;;;;;;21.65;10.15;;;;;;;18.60;48.74;100780.81;5056161;28;20049;-44
2022/04/17 10:45:22;;;;;;;28.38;13.35;;;;;;;18.69;49.71;100783.22;5038540;28;20580;-47
2022/04/17 10:48:11;;;;;;;25.30;12.60;;;;;;;18.74;49.55;100778.69;5042305;28;20049;-43
2022/04/17 10:50:53;;;;;;;28.92;11.82;;;;;;;18.71;49.87;100773.53;5061259;28;20045;-48
2022/04/17 10:53:24;;;;;;;;;;;;;;;18.70;48.60;100774.44;5031426;28;20053;-45
2022/04/17 10:56:15;;;;;;;24.30;10.85;;;;;;;18.89;47.88;100766.94;5021639;28;20018;-46
2022/04/17 10:58:54;;;;;;;23.00;10.90;;;;;;;19.04;47.98;100763.97;5045100;28;20041;-44
2022/04/17 11:09:34;;;;;;;22.65;12.25;;;;;;;19.43;46.58;100755.94;5021639;28;20390;-49
2022/04/17 11:12:07;;;;;;;19.38;10.23;;;;;;;19.27;47.98;100750.22;5033115;28;20046;-46
2022/04/17 11:14:34;;;;;;;23.60;10.38;;;;;;;19.18;46.53;100748.72;4998679;28;20046;-47
2022/04/17 11:17:08;;;;;;;17.77;8.98;;;;;;;19.29;46.60;100753.69;4989767;28;20053;-45
2022/04/17 11:19:36;;;;;;;18.05;8.90;;;;;;;19.31;46.96;100748.38;4990766;28;20042;-46
2022/04/17 11:22:05;;;;;;;17.75;8.30;;;;;;;19.31;45.88;100748.38;4990438;28;20478;-49
2022/04/17 11:32:47;;;;;;;19.48;10.65;;;;;;;19.88;44.54;100745.84;5034108;28;20418;-47
2022/04/17 11:35:17;;;;;;;13.38;8.23;;;;;;;19.77;44.43;100733.91;4996917;28;20101;-44
2022/04/17 11:38:02;;;;;;;15.20;7.72;;;;;;;19.77;42.76;100728.66;4992236;28;20046;-47
2022/04/17 11:40:32;;;;;;;15.07;8.10;;;;;;;19.79;42.69;100731.22;5001742;28;20120;-46
2022/04/17 11:43:09;;;;;;;11.23;7.03;;;;;;;19.59;41.91;100723.94;4986875;28;20050;-46
2022/04/17 11:45:37;;;;;;;13.10;8.02;;;;;;;19.45;42.39;100722.56;4990129;28;20502;-46
2022/04/17 11:48:07;;;;;;;12.98;6.68;;;;;;;19.36;42.34;100710.56;4991928;28;20062;-46
2022/04/17 11:50:34;;;;;;;10.07;6.32;;;;;;;19.16;43.56;100711.16;4990139;28;20046;-49
2022/04/17 11:53:18;;;;;;;11.07;7.30;;;;;;;19.14;42.77;100707.69;5013783;28;20073;-45
2022/04/17 11:55:46;;;;;;;10.05;5.68;;;;;;;19.14;42.63;100691.94;4992906;28;20047;-48
2022/04/17 11:58:22;;;;;;;14.20;5.43;;;;;;;19.08;43.33;100694.75;4994198;28;20442;-49
2022/04/17 12:00:56;;;;;;;;;;;;;;;19.02;43.00;100698.38;4997714;28;20050;-45
2022/04/17 12:03:34;;;;;;;9.80;5.60;;;;;;;19.16;43.19;100692.78;4993334;28;19921;-52
2022/04/17 12:06:03;;;;;;;11.23;5.13;;;;;;;19.12;42.48;100691.16;5019600;28;20419;-45
2022/04/17 12:08:34;;;;;;;12.65;6.72;;;;;;;19.13;43.22;100687.59;4999612;28;20497;-44